Time;durP1;ratioP1;P1;durP2;ratioP2;P2;SDS_P1;SDS_P2;PMS_P1;PMS_P2;Temp;Humidity;BMP_temperature;BMP_pressure;BME280_temperature;BME280_humidity;BME280_pressure;Samples;Min_cycle;Max_cycle;Signal;HPM_P1;HPM_P2
2023/07/26 00:00:02;;;;;;;3.50;1.20;;;21.20;66.50;;;;;;5115325;28;20242;-89
2023/07/26 00:02:28;;;;;;;2.27;1.07;;;21.20;66.60;;;;;;5103404;28;20506;-89
2023/07/26 00:04:53;;;;;;;2.27;1.30;;;21.20;66.60;;;;;;5105966;28;20175;-89
2023/07/26 00:07:19;;;;;;;3.07;1.20;;;21.20;66.50;;;;;;5105524;28;20555;-89
2023/07/26 00:09:48;;;;;;;1.27;0.90;;;21.20;66.70;;;;;;5108368;28;20182;-89
2023/07/26 00:12:16;;;;;;;1.90;1.23;;;21.20;66.90;;;;;;5106331;28;20280;-89
2023/07/26 00:14:42;;;;;;;1.40;1.00;;;21.20;67.00;;;;;;5105109;28;20177;-89
2023/07/26 00:17:10;;;;;;;1.27;1.10;;;21.20;67.10;;;;;;5103370;28;20238;-89
2023/07/26 00:19:36;;;;;;;1.70;1.10;;;21.20;67.00;;;;;;5101271;28;20279;-89
2023/07/26 00:22:02;;;;;;;1.27;0.97;;;21.20;67.10;;;;;;5107925;28;20339;-89
2023/07/26 00:27:06;;;;;;;2.93;1.17;;;21.10;67.10;;;;;;5205921;22;20246;-87
2023/07/26 00:29:34;;;;;;;1.40;1.10;;;21.10;67.30;;;;;;5123533;27;20178;-87
2023/07/26 00:32:03;;;;;;;1.30;1.00;;;21.10;67.30;;;;;;5104912;27;20632;-87
2023/07/26 00:34:29;;;;;;;1.30;1.00;;;21.10;67.00;;;;;;5119879;27;20219;-87
2023/07/26 00:36:55;;;;;;;1.90;1.20;;;21.10;67.20;;;;;;5108394;27;20228;-87
2023/07/26 00:39:20;;;;;;;1.67;1.10;;;21.10;67.40;;;;;;5110401;27;20383;-87
2023/07/26 00:41:46;;;;;;;1.20;1.07;;;21.10;67.50;;;;;;5104233;27;20585;-87
2023/07/26 00:44:11;;;;;;;2.37;1.00;;;21.10;67.60;;;;;;5106111;27;20206;-87
2023/07/26 00:46:41;;;;;;;3.13;1.23;;;21.10;67.60;;;;;;5108525;27;20196;-87
2023/07/26 00:49:07;;;;;;;3.10;1.20;;;21.10;67.60;;;;;;5106956;27;20171;-87
2023/07/26 00:51:35;;;;;;;1.30;1.00;;;21.00;67.70;;;;;;5114838;27;20182;-87
2023/07/26 00:54:03;;;;;;;1.90;1.00;;;21.00;67.80;;;;;;5111940;27;20181;-87
2023/07/26 00:56:32;;;;;;;1.30;1.07;;;21.00;67.80;;;;;;5109437;27;20177;-87
2023/07/26 00:58:58;;;;;;;1.67;1.10;;;21.00;67.80;;;;;;5107304;27;20265;-87
2023/07/26 01:01:27;;;;;;;1.23;1.10;;;21.00;67.90;;;;;;5107419;27;20178;-87
2023/07/26 01:03:53;;;;;;;1.30;1.10;;;21.00;68.00;;;;;;5112226;27;20177;-87
2023/07/26 01:06:37;;;;;;;2.20;1.10;;;21.00;68.00;;;;;;5110956;27;20174;-87
2023/07/26 01:09:23;;;;;;;1.33;1.10;;;21.00;68.10;;;;;;5112651;27;20181;-87
2023/07/26 01:12:01;;;;;;;1.20;1.03;;;21.00;68.10;;;;;;5109705;27;20215;-87
2023/07/26 01:14:34;;;;;;;1.20;1.10;;;21.00;68.10;;;;;;5109687;28;20454;-89
2023/07/26 01:17:00;;;;;;;1.83;1.27;;;20.90;68.00;;;;;;5105187;27;20174;-89
2023/07/26 01:19:26;;;;;;;1.40;1.20;;;20.90;68.00;;;;;;5109543;27;20205;-89
2023/07/26 01:21:51;;;;;;;1.50;1.23;;;20.90;68.10;;;;;;5108261;27;20223;-89
2023/07/26 01:24:20;;;;;;;2.30;1.47;;;20.90;67.80;;;;;;5107215;27;20550;-89
2023/07/26 01:26:45;;;;;;;1.30;1.20;;;20.90;68.00;;;;;;5131279;27;20217;-89
2023/07/26 01:29:11;;;;;;;1.23;1.13;;;20.90;68.00;;;;;;5110559;27;20577;-88
2023/07/26 01:31:38;;;;;;;1.30;1.10;;;20.90;68.10;;;;;;5115363;27;20434;-88
2023/07/26 01:34:05;;;;;;;1.90;1.27;;;20.90;68.20;;;;;;5106470;27;20535;-88
2023/07/26 01:36:32;;;;;;;1.30;1.20;;;20.90;68.20;;;;;;5107232;27;20181;-88
2023/07/26 01:39:01;;;;;;;1.80;1.47;;;20.90;68.30;;;;;;5107139;27;20174;-89
2023/07/26 01:41:31;;;;;;;2.07;1.17;;;20.90;68.40;;;;;;5117107;27;20185;-89
2023/07/26 01:44:07;;;;;;;1.53;1.30;;;20.80;68.30;;;;;;5108606;27;20174;-90
2023/07/26 01:46:33;;;;;;;1.77;1.20;;;20.80;68.50;;;;;;5107385;28;20308;-90
2023/07/26 01:48:59;;;;;;;1.53;1.20;;;20.80;68.60;;;;;;5102969;27;20216;-90
2023/07/26 01:51:25;;;;;;;1.80;1.40;;;20.80;68.60;;;;;;5106309;27;20515;-90
2023/07/26 01:53:50;;;;;;;2.43;1.20;;;20.80;68.60;;;;;;5100943;28;20212;-90
2023/07/26 01:56:16;;;;;;;2.53;1.40;;;20.80;68.60;;;;;;5120492;27;20197;-90
2023/07/26 01:58:45;;;;;;;2.50;1.40;;;20.90;68.50;;;;;;5119877;27;20542;-90
2023/07/26 02:01:18;;;;;;;1.30;1.20;;;20.90;68.30;;;;;;5105117;27;20204;-90
2023/07/26 02:03:43;;;;;;;1.30;1.20;;;20.90;68.10;;;;;;5120966;27;20204;-90
2023/07/26 02:06:09;;;;;;;2.50;1.53;;;20.90;68.00;;;;;;5103799;28;20647;-90
2023/07/26 02:08:35;;;;;;;1.50;1.40;;;20.90;67.80;;;;;;5102316;28;20702;-90
2023/07/26 02:11:04;;;;;;;1.97;1.37;;;20.90;67.90;;;;;;5106161;27;20181;-90
2023/07/26 02:13:33;;;;;;;1.77;1.30;;;20.80;67.90;;;;;;5103086;28;20622;-90
2023/07/26 02:15:59;;;;;;;1.80;1.30;;;20.90;67.90;;;;;;5109564;27;20204;-90
2023/07/26 02:18:28;;;;;;;1.63;1.30;;;20.80;67.80;;;;;;5108239;27;20245;-90
2023/07/26 02:20:54;;;;;;;1.97;1.20;;;20.80;67.90;;;;;;5123501;27;20194;-90
2023/07/26 02:23:19;;;;;;;1.90;1.47;;;20.80;67.90;;;;;;5124657;27;20173;-90
2023/07/26 02:25:45;;;;;;;1.80;1.40;;;20.80;67.90;;;;;;5104761;27;20251;-90
2023/07/26 02:28:11;;;;;;;1.60;1.43;;;20.80;68.00;;;;;;5107884;27;20209;-90
2023/07/26 02:30:37;;;;;;;2.87;1.30;;;20.80;68.10;;;;;;5104352;27;20188;-90
2023/07/26 02:33:05;;;;;;;1.60;1.20;;;20.70;68.10;;;;;;5107251;27;20240;-90
2023/07/26 02:35:34;;;;;;;1.50;1.40;;;20.70;68.20;;;;;;5110310;27;20178;-90
2023/07/26 02:38:02;;;;;;;1.97;1.30;;;20.70;68.30;;;;;;5109948;27;20285;-90
2023/07/26 02:40:30;;;;;;;3.13;1.47;;;20.70;68.50;;;;;;5105374;27;20277;-90
2023/07/26 02:42:55;;;;;;;1.53;1.40;;;20.70;68.30;;;;;;5103132;28;20208;-90
2023/07/26 02:45:21;;;;;;;1.60;1.40;;;20.70;68.40;;;;;;5115897;27;20193;-90
2023/07/26 02:47:49;;;;;;;1.70;1.37;;;20.70;68.40;;;;;;5104185;28;20214;-90
2023/07/26 02:50:17;;;;;;;1.20;1.10;;;20.70;68.40;;;;;;5103803;28;20193;-90
2023/07/26 02:52:42;;;;;;;1.70;1.30;;;20.80;68.10;;;;;;5106940;27;20447;-90
2023/07/26 02:55:17;;;;;;;2.70;1.20;;;20.80;68.10;;;;;;5105440;28;20530;-90
2023/07/26 02:57:43;;;;;;;2.30;1.33;;;20.70;68.10;;;;;;5107278;28;20436;-90
2023/07/26 03:00:09;;;;;;;1.97;1.17;;;20.70;68.10;;;;;;5104913;28;20598;-90
2023/07/26 03:02:35;;;;;;;1.93;1.30;;;20.70;68.00;;;;;;5123277;28;20550;-90
2023/07/26 03:05:00;;;;;;;2.90;1.50;;;20.70;68.10;;;;;;5104432;28;20206;-90
2023/07/26 03:07:26;;;;;;;1.83;1.30;;;20.70;68.20;;;;;;5123591;28;20478;-89
2023/07/26 03:09:55;;;;;;;1.50;1.30;;;20.70;68.20;;;;;;5104790;28;20213;-89
2023/07/26 03:12:23;;;;;;;1.47;1.03;;;20.70;68.30;;;;;;5126525;28;20239;-89
2023/07/26 03:14:49;;;;;;;2.17;1.40;;;20.70;68.30;;;;;;5107702;28;20712;-90
2023/07/26 03:17:15;;;;;;;1.60;1.23;;;20.80;68.20;;;;;;5104176;28;20183;-90
2023/07/26 03:19:41;;;;;;;2.97;1.43;;;20.80;68.10;;;;;;5107060;28;20177;-89
2023/07/26 03:22:06;;;;;;;2.07;1.13;;;20.70;68.10;;;;;;5103262;28;20277;-89
2023/07/26 03:24:32;;;;;;;1.77;1.20;;;20.70;68.10;;;;;;5107142;28;20237;-89
2023/07/26 03:26:58;;;;;;;2.63;1.30;;;20.70;68.30;;;;;;5120029;28;20277;-89
2023/07/26 03:29:26;;;;;;;2.03;1.40;;;20.70;68.50;;;;;;5108294;28;20178;-89
2023/07/26 03:31:52;;;;;;;1.63;1.30;;;20.70;68.50;;;;;;5103521;28;20515;-89
2023/07/26 03:34:20;;;;;;;1.90;1.30;;;20.70;68.50;;;;;;5124835;28;20570;-89
2023/07/26 03:36:46;;;;;;;1.97;1.30;;;20.70;68.80;;;;;;5103815;28;20183;-89
2023/07/26 03:39:12;;;;;;;1.80;1.50;;;20.70;68.90;;;;;;5123018;28;20265;-89
2023/07/26 03:41:40;;;;;;;1.77;1.40;;;20.60;68.90;;;;;;5105676;28;20501;-89
2023/07/26 03:44:09;;;;;;;1.40;1.27;;;20.60;68.90;;;;;;5123077;28;20228;-89
2023/07/26 03:46:34;;;;;;;1.60;1.20;;;20.60;68.90;;;;;;5105105;28;20172;-89
2023/07/26 03:49:00;;;;;;;1.43;1.33;;;20.70;68.90;;;;;;5106703;28;20223;-87
2023/07/26 03:51:29;;;;;;;2.80;1.60;;;20.70;69.00;;;;;;5121846;28;20306;-86
2023/07/26 03:54:01;;;;;;;2.50;1.60;;;20.70;69.50;;;;;;5106313;27;20217;-86
2023/07/26 03:56:30;;;;;;;;;;;20.60;71.00;;;;;;5109581;27;20011;-86
2023/07/26 03:58:55;;;;;;;;;;;20.10;73.50;;;;;;5114194;27;19910;-86
2023/07/26 04:01:21;;;;;;;1.70;1.60;;;20.10;73.00;;;;;;5124178;27;19904;-87
2023/07/26 04:03:52;;;;;;;2.67;1.60;;;20.20;72.50;;;;;;5110615;27;20177;-87
2023/07/26 04:06:18;;;;;;;2.60;1.50;;;20.30;71.80;;;;;;5107078;27;20178;-87
2023/07/26 04:08:47;;;;;;;3.03;1.43;;;20.40;71.40;;;;;;5110324;27;20484;-87
2023/07/26 04:11:12;;;;;;;2.27;1.50;;;20.40;71.20;;;;;;5107527;27;20181;-87
2023/07/26 04:13:41;;;;;;;1.53;1.30;;;20.50;70.90;;;;;;5110127;27;20184;-87
2023/07/26 04:16:26;;;;;;;3.53;1.57;;;20.50;70.80;;;;;;5106779;27;20209;-87
2023/07/26 04:18:54;;;;;;;2.30;1.40;;;20.40;70.70;;;;;;5124896;27;20202;-87
2023/07/26 04:21:20;;;;;;;4.23;1.40;;;20.50;70.70;;;;;;5105184;27;20285;-87
2023/07/26 04:23:49;;;;;;;1.60;1.40;;;20.40;70.60;;;;;;5110672;27;20283;-87
2023/07/26 04:26:19;;;;;;;2.63;1.57;;;20.40;70.80;;;;;;5106556;27;20206;-87
2023/07/26 04:28:45;;;;;;;2.47;1.30;;;20.40;70.90;;;;;;5105993;27;20205;-87
2023/07/26 04:31:13;;;;;;;1.60;1.37;;;20.50;71.00;;;;;;5125689;27;20169;-86
2023/07/26 04:33:39;;;;;;;2.20;1.60;;;20.40;70.90;;;;;;5102875;28;20433;-85
2023/07/26 04:36:08;;;;;;;3.10;1.67;;;20.50;71.10;;;;;;5125718;27;20177;-85
2023/07/26 04:38:33;;;;;;;2.43;1.67;;;20.50;70.90;;;;;;5109926;27;20184;-86
2023/07/26 04:40:59;;;;;;;2.83;1.50;;;20.40;70.90;;;;;;5122313;27;20170;-86
2023/07/26 04:43:30;;;;;;;1.87;1.40;;;20.40;71.20;;;;;;5127724;27;20185;-86
2023/07/26 04:45:56;;;;;;;2.13;1.30;;;20.50;71.00;;;;;;5110515;27;20276;-86
2023/07/26 04:48:27;;;;;;;2.00;1.60;;;20.50;71.00;;;;;;5107065;27;20292;-86
2023/07/26 04:50:53;;;;;;;2.87;1.70;;;20.40;71.00;;;;;;5112739;27;20379;-86
2023/07/26 04:53:18;;;;;;;2.00;1.63;;;20.50;71.10;;;;;;5110362;27;20458;-86
2023/07/26 04:55:55;;;;;;;2.70;1.70;;;20.50;71.20;;;;;;5111659;27;20177;-86
2023/07/26 04:58:21;;;;;;;2.77;1.70;;;20.50;71.30;;;;;;5108285;28;20190;-86
2023/07/26 05:00:47;;;;;;;3.23;1.70;;;20.50;71.10;;;;;;5106963;27;20182;-87
2023/07/26 05:03:16;;;;;;;2.10;1.50;;;20.50;71.10;;;;;;5104556;27;20185;-87
2023/07/26 05:05:51;;;;;;;2.80;1.63;;;20.50;71.20;;;;;;5101625;27;20196;-87
2023/07/26 05:08:17;;;;;;;2.30;1.57;;;20.50;71.40;;;;;;5102722;27;20597;-87
2023/07/26 05:10:43;;;;;;;2.03;1.80;;;20.50;71.30;;;;;;5102271;27;20303;-87
2023/07/26 05:13:08;;;;;;;2.07;1.63;;;20.50;71.30;;;;;;5102481;27;20184;-87
2023/07/26 05:15:35;;;;;;;3.37;1.60;;;20.50;71.30;;;;;;5102211;27;20181;-87
2023/07/26 05:18:03;;;;;;;1.77;1.60;;;20.50;71.10;;;;;;5105699;27;20569;-87
2023/07/26 05:20:28;;;;;;;1.80;1.70;;;20.50;71.20;;;;;;5122418;27;20443;-87
2023/07/26 05:22:54;;;;;;;1.77;1.30;;;20.50;71.00;;;;;;5106832;27;20340;-87
2023/07/26 05:25:21;;;;;;;1.70;1.50;;;20.50;71.10;;;;;;5104898;27;20189;-87
2023/07/26 05:27:50;;;;;;;1.97;1.50;;;20.50;71.10;;;;;;5107492;27;20218;-87
2023/07/26 05:30:21;;;;;;;2.00;1.60;;;20.50;71.00;;;;;;5102586;28;20180;-87
2023/07/26 05:32:47;;;;;;;2.80;1.57;;;20.60;70.80;;;;;;5104899;27;20184;-87
2023/07/26 05:35:16;;;;;;;1.93;1.60;;;20.60;70.90;;;;;;5121273;27;20357;-87
2023/07/26 05:37:41;;;;;;;2.13;1.40;;;20.60;70.90;;;;;;5105345;27;20781;-87
2023/07/26 05:40:10;;;;;;;1.50;1.40;;;20.60;71.00;;;;;;5121729;27;20546;-87
2023/07/26 05:42:42;;;;;;;1.97;1.50;;;20.60;70.80;;;;;;5110865;27;20189;-87
2023/07/26 05:45:11;;;;;;;1.80;1.50;;;20.60;70.80;;;;;;5104844;27;20324;-87
2023/07/26 05:47:38;;;;;;;1.87;1.67;;;20.60;70.70;;;;;;5104532;27;20528;-87
2023/07/26 05:50:10;;;;;;;2.27;1.60;;;20.60;70.60;;;;;;5117576;27;20212;-87
2023/07/26 05:52:39;;;;;;;2.27;1.63;;;20.70;70.80;;;;;;5121795;27;20234;-87
2023/07/26 05:55:05;;;;;;;2.77;1.50;;;20.60;70.60;;;;;;5118898;27;20182;-87
2023/07/26 05:57:34;;;;;;;1.77;1.57;;;20.70;70.60;;;;;;5099520;27;20608;-87
2023/07/26 06:00:32;;;;;;;3.57;1.70;;;20.70;70.60;;;;;;5102471;27;20271;-88
2023/07/26 06:03:00;;;;;;;4.07;1.90;;;20.70;70.60;;;;;;5100978;27;20178;-87
2023/07/26 06:05:29;;;;;;;1.43;1.30;;;20.80;70.50;;;;;;5099570;28;20787;-87
2023/07/26 06:07:57;;;;;;;3.03;1.40;;;20.80;70.30;;;;;;5098721;28;20476;-87
2023/07/26 06:10:58;;;;;;;3.13;1.60;;;20.80;70.20;;;;;;5099733;27;20192;-87
2023/07/26 06:13:16;;;;;;;3.93;1.43;;;20.90;70.00;;;;;;5116880;27;20186;-87
2023/07/26 06:15:45;;;;;;;2.00;1.53;;;21.00;70.00;;;;;;5098515;28;20189;-87
2023/07/26 06:18:14;;;;;;;1.40;1.30;;;21.00;70.20;;;;;;5104338;27;20670;-87
2023/07/26 06:20:41;;;;;;;1.47;1.37;;;21.10;69.40;;;;;;5102009;27;20177;-87
2023/07/26 06:23:10;;;;;;;1.67;1.40;;;21.10;68.90;;;;;;5097778;27;20177;-87
2023/07/26 06:25:36;;;;;;;1.90;1.60;;;21.20;68.70;;;;;;5100561;27;20190;-87
2023/07/26 06:28:04;;;;;;;1.50;1.40;;;21.20;69.40;;;;;;5102191;27;20284;-87
2023/07/26 06:30:31;;;;;;;3.83;1.60;;;21.20;70.30;;;;;;5101975;27;20296;-87
2023/07/26 06:32:57;;;;;;;2.60;1.70;;;21.30;71.70;;;;;;5119646;27;20177;-87
2023/07/26 06:35:26;;;;;;;5.67;2.03;;;21.30;72.20;;;;;;5100529;27;20191;-87
2023/07/26 06:37:51;;;;;;;3.03;1.90;;;21.30;72.50;;;;;;5117604;27;20170;-87
2023/07/26 06:40:20;;;;;;;3.73;1.60;;;21.30;73.20;;;;;;5100746;27;20376;-87
2023/07/26 06:42:46;;;;;;;2.30;1.60;;;21.40;73.20;;;;;;5095749;28;20180;-87
2023/07/26 06:45:11;;;;;;;2.40;1.70;;;21.40;73.10;;;;;;5099133;28;20273;-87
2023/07/26 06:47:38;;;;;;;3.27;1.70;;;21.40;73.00;;;;;;5118451;27;20212;-87
2023/07/26 06:50:07;;;;;;;4.43;2.00;;;21.50;72.90;;;;;;5113918;27;20577;-87
2023/07/26 06:52:32;;;;;;;3.87;1.70;;;21.50;72.90;;;;;;5095410;27;20337;-87
2023/07/26 06:55:01;;;;;;;4.07;1.87;;;21.60;72.80;;;;;;5117557;27;20173;-87
2023/07/26 06:57:27;;;;;;;8.93;1.60;;;21.60;72.60;;;;;;5096282;28;20182;-87
2023/07/26 06:59:55;;;;;;;2.63;1.70;;;21.60;73.10;;;;;;5098741;28;20182;-86
2023/07/26 07:02:24;;;;;;;5.27;1.97;;;21.60;72.40;;;;;;5098832;28;20337;-87
2023/07/26 07:04:52;;;;;;;2.93;1.57;;;21.70;72.40;;;;;;5097233;28;20892;-87
2023/07/26 07:07:22;;;;;;;6.07;1.97;;;21.70;72.00;;;;;;5099396;28;20347;-87
2023/07/26 07:09:50;;;;;;;5.30;1.83;;;21.80;72.20;;;;;;5095890;28;20210;-87
2023/07/26 07:12:16;;;;;;;2.60;1.60;;;21.80;71.60;;;;;;5094631;28;20277;-87
2023/07/26 07:14:42;;;;;;;2.23;1.50;;;21.90;71.30;;;;;;5098378;28;20272;-86
2023/07/26 07:17:11;;;;;;;4.80;1.70;;;21.90;71.30;;;;;;5116779;28;20258;-86
2023/07/26 07:19:37;;;;;;;5.17;1.47;;;22.00;71.20;;;;;;5098804;28;20182;-86
2023/07/26 07:22:03;;;;;;;6.33;1.60;;;22.00;71.10;;;;;;5098860;28;20181;-87
2023/07/26 07:24:29;;;;;;;4.40;1.50;;;22.20;70.40;;;;;;5095928;28;20552;-87
2023/07/26 07:26:54;;;;;;;3.57;1.73;;;22.20;70.30;;;;;;5098680;27;20576;-87
2023/07/26 07:29:20;;;;;;;4.13;1.60;;;22.30;69.80;;;;;;5101257;27;20181;-87
2023/07/26 07:31:48;;;;;;;2.20;1.53;;;22.20;69.30;;;;;;5118542;27;20174;-86
2023/07/26 07:34:14;;;;;;;3.40;1.50;;;22.30;69.40;;;;;;5101435;27;20178;-86
2023/07/26 07:36:41;;;;;;;2.03;1.70;;;22.30;69.60;;;;;;5100915;27;20243;-87
2023/07/26 07:39:09;;;;;;;2.33;1.60;;;22.40;68.40;;;;;;5100145;28;20586;-86
2023/07/26 07:41:36;;;;;;;2.17;1.50;;;22.50;68.20;;;;;;5098174;28;20178;-87
2023/07/26 07:44:04;;;;;;;2.27;1.77;;;22.50;67.90;;;;;;5101326;28;20186;-86
2023/07/26 07:46:30;;;;;;;2.50;1.70;;;22.40;68.60;;;;;;5102650;28;20256;-87
2023/07/26 07:48:56;;;;;;;2.10;1.73;;;22.40;68.30;;;;;;5111478;27;20270;-86
2023/07/26 07:51:22;;;;;;;2.60;1.60;;;22.40;68.30;;;;;;5102681;28;20813;-86
2023/07/26 07:53:50;;;;;;;3.13;1.60;;;22.40;67.60;;;;;;5099925;28;20546;-86
2023/07/26 07:56:18;;;;;;;2.50;1.60;;;22.50;67.60;;;;;;5108069;27;20209;-86
2023/07/26 07:58:47;;;;;;;2.83;1.70;;;22.50;67.30;;;;;;5110784;28;20476;-86
2023/07/26 08:01:16;;;;;;;2.80;1.60;;;22.60;67.20;;;;;;5109331;27;20181;-87
2023/07/26 08:03:42;;;;;;;2.37;1.57;;;22.60;67.00;;;;;;5104586;28;20182;-86
2023/07/26 08:06:09;;;;;;;2.33;1.63;;;22.60;66.60;;;;;;5112615;27;20186;-87
2023/07/26 08:08:34;;;;;;;2.67;1.60;;;22.70;66.40;;;;;;5115519;28;20206;-87
2023/07/26 08:11:02;;;;;;;2.63;1.50;;;22.70;66.10;;;;;;5100519;27;20239;-86
2023/07/26 08:13:28;;;;;;;2.67;1.53;;;22.80;65.70;;;;;;5098285;28;20698;-86
2023/07/26 08:15:57;;;;;;;3.93;1.80;;;22.80;65.60;;;;;;5108797;27;20659;-87
2023/07/26 08:18:22;;;;;;;3.50;1.80;;;22.80;65.40;;;;;;5116752;27;20260;-87
2023/07/26 08:20:48;;;;;;;2.87;1.70;;;22.80;65.30;;;;;;5109398;28;20281;-87
2023/07/26 08:23:20;;;;;;;3.23;1.70;;;23.00;64.70;;;;;;5112719;27;20275;-87
2023/07/26 08:25:45;;;;;;;3.60;1.90;;;23.20;63.90;;;;;;5109234;28;20182;-87
2023/07/26 08:28:11;;;;;;;4.97;2.10;;;23.30;63.40;;;;;;5126752;27;20214;-87
2023/07/26 08:30:38;;;;;;;3.60;1.90;;;23.30;63.30;;;;;;5113653;27;20178;-86
2023/07/26 08:33:06;;;;;;;2.70;2.00;;;23.20;63.10;;;;;;5116740;27;20198;-86
2023/07/26 08:35:34;;;;;;;2.70;1.77;;;23.10;63.20;;;;;;5109505;27;20185;-87
2023/07/26 08:38:42;;;;;;;3.47;1.93;;;23.10;63.50;;;;;;5097785;28;20174;-87
2023/07/26 08:41:14;;;;;;;3.43;2.20;;;23.20;63.20;;;;;;5070012;28;20285;-87
2023/07/26 08:43:45;;;;;;;3.05;2.10;;;23.30;62.80;;;;;;5119244;27;20177;-87
2023/07/26 08:46:12;;;;;;;4.32;2.00;;;23.40;62.50;;;;;;5102959;27;20230;-87
2023/07/26 08:48:39;;;;;;;3.13;2.03;;;23.50;62.20;;;;;;5108861;27;20213;-87
2023/07/26 08:51:21;;;;;;;2.42;1.90;;;23.50;62.10;;;;;;5106429;27;20185;-87
2023/07/26 08:53:49;;;;;;;4.25;1.77;;;23.60;61.60;;;;;;5098235;27;20574;-87
2023/07/26 08:56:15;;;;;;;2.25;1.60;;;23.70;61.30;;;;;;5109444;27;20482;-87
2023/07/26 08:58:44;;;;;;;2.58;1.98;;;23.70;61.40;;;;;;5113746;27;20189;-88
2023/07/26 09:01:11;;;;;;;2.13;1.77;;;23.70;60.90;;;;;;5100606;28;20166;-87
2023/07/26 09:03:37;;;;;;;4.55;1.90;;;23.80;60.70;;;;;;5130103;27;20178;-88
2023/07/26 09:06:11;;;;;;;3.33;1.70;;;23.80;60.50;;;;;;5112562;27;20568;-88
2023/07/26 09:09:02;;;;;;;2.00;1.80;;;23.90;60.60;;;;;;5101234;28;20210;-88
2023/07/26 09:11:31;;;;;;;3.30;1.90;;;23.80;60.50;;;;;;5113041;27;20258;-88
2023/07/26 09:14:05;;;;;;;2.85;1.88;;;23.70;60.80;;;;;;5109320;27;20174;-87
2023/07/26 09:16:35;;;;;;;3.33;2.20;;;23.70;61.10;;;;;;5099234;28;20178;-88
2023/07/26 09:19:02;;;;;;;2.50;2.13;;;23.60;61.30;;;;;;5125927;27;20169;-88
2023/07/26 09:21:30;;;;;;;4.90;2.20;;;23.60;61.40;;;;;;5113361;27;20353;-89
2023/07/26 09:24:06;;;;;;;2.60;2.00;;;23.60;61.60;;;;;;5113401;27;20162;-89
2023/07/26 09:26:45;;;;;;;3.37;2.00;;;23.70;61.10;;;;;;5099485;28;20201;-88
2023/07/26 09:29:15;;;;;;;4.95;2.40;;;23.70;61.10;;;;;;5100278;27;20216;-88
2023/07/26 09:31:42;;;;;;;3.57;1.90;;;23.80;60.90;;;;;;5097271;27;20188;-88
2023/07/26 09:34:31;;;;;;;2.78;1.83;;;23.90;60.20;;;;;;5096873;27;20177;-88
2023/07/26 09:36:58;;;;;;;3.20;2.10;;;24.00;60.00;;;;;;5097207;27;20284;-88
2023/07/26 09:39:28;;;;;;;2.70;2.00;;;24.00;59.70;;;;;;5096687;27;20178;-89
2023/07/26 09:42:12;;;;;;;4.37;2.03;;;23.90;59.80;;;;;;5096162;27;20232;-89
2023/07/26 09:44:45;;;;;;;3.07;2.20;;;23.90;59.80;;;;;;5101665;27;20185;-89
2023/07/26 09:47:10;;;;;;;4.70;2.20;;;24.00;59.70;;;;;;5097253;27;20413;-88
2023/07/26 09:49:52;;;;;;;4.77;2.73;;;23.80;60.00;;;;;;5092356;28;20502;-88
2023/07/26 09:52:20;;;;;;;2.83;2.37;;;23.60;61.00;;;;;;5112174;27;20366;-89
2023/07/26 09:54:47;;;;;;;2.43;2.23;;;23.40;61.50;;;;;;5114926;27;20174;-88
2023/07/26 09:57:22;;;;;;;2.93;2.10;;;23.30;61.60;;;;;;5096325;27;20554;-90
2023/07/26 09:59:50;;;;;;;2.37;2.00;;;23.10;62.40;;;;;;5123956;27;20298;-88
2023/07/26 10:02:19;;;;;;;3.47;1.90;;;23.00;62.80;;;;;;5120692;27;20395;-88
2023/07/26 10:04:54;;;;;;;4.23;2.10;;;23.00;62.90;;;;;;5108166;27;20292;-88
2023/07/26 10:07:28;;;;;;;4.73;1.90;;;23.00;63.30;;;;;;5091161;27;20228;-89
2023/07/26 10:09:57;;;;;;;3.23;2.07;;;23.00;63.50;;;;;;5091304;27;20698;-87
2023/07/26 10:12:29;;;;;;;3.60;1.90;;;23.00;63.70;;;;;;5099150;28;20177;-88
2023/07/26 10:15:12;;;;;;;4.00;2.10;;;22.90;63.70;;;;;;5118227;27;20181;-88
2023/07/26 10:17:56;;;;;;;2.83;1.90;;;22.70;64.30;;;;;;5115101;27;20293;-87
2023/07/26 10:20:31;;;;;;;3.23;2.00;;;22.70;64.00;;;;;;5097497;27;20220;-88
2023/07/26 10:23:02;;;;;;;3.00;2.10;;;22.60;64.50;;;;;;5100568;27;20185;-89
2023/07/26 10:25:33;;;;;;;5.07;2.00;;;22.60;64.90;;;;;;5102169;27;20600;-88
2023/07/26 10:28:06;;;;;;;2.90;2.10;;;22.50;64.80;;;;;;5118177;27;20197;-89
2023/07/26 10:30:32;;;;;;;2.90;2.00;;;22.50;65.00;;;;;;5105023;27;20513;-89
2023/07/26 10:33:01;;;;;;;2.97;1.97;;;22.50;65.10;;;;;;5099425;27;20217;-89
2023/07/26 10:35:33;;;;;;;2.73;2.10;;;22.50;65.20;;;;;;5099001;27;20598;-89
2023/07/26 10:38:02;;;;;;;2.33;1.70;;;22.50;66.10;;;;;;5118494;27;20188;-88
2023/07/26 10:40:40;;;;;;;1.73;1.50;;;22.60;66.30;;;;;;5098752;27;20193;-89
2023/07/26 10:43:40;;;;;;;2.80;1.83;;;22.70;65.60;;;;;;5109955;27;20700;-88
2023/07/26 10:46:13;;;;;;;2.97;1.87;;;22.80;67.80;;;;;;5090151;28;20201;-89
2023/07/26 10:48:40;;;;;;;2.50;2.00;;;22.90;65.20;;;;;;5112008;28;20213;-89
2023/07/26 10:51:33;;;;;;;1.77;1.60;;;22.90;65.10;;;;;;5132092;27;20204;-89
2023/07/26 10:54:00;;;;;;;1.73;1.63;;;23.10;64.30;;;;;;5101698;27;20228;-89
2023/07/26 10:56:35;;;;;;;3.43;1.80;;;23.10;64.30;;;;;;5112211;27;20203;-89
2023/07/26 10:59:08;;;;;;;2.60;1.53;;;23.20;63.70;;;;;;5098090;28;20678;-88
2023/07/26 11:01:44;;;;;;;2.40;1.50;;;23.20;63.50;;;;;;5099484;27;20189;-90
2023/07/26 11:04:20;;;;;;;3.53;1.60;;;23.30;63.40;;;;;;5117603;28;20199;-90
2023/07/26 11:07:00;;;;;;;2.00;1.70;;;23.30;63.10;;;;;;5116009;28;20493;-89
2023/07/26 11:09:28;;;;;;;2.03;1.73;;;23.30;62.80;;;;;;5112802;28;20200;-89
2023/07/26 11:12:26;;;;;;;2.03;1.50;;;23.40;63.20;;;;;;5098311;28;20230;-89
2023/07/26 11:14:54;;;;;;;2.37;1.50;;;23.40;63.00;;;;;;5087658;28;20193;-90
2023/07/26 11:17:20;;;;;;;4.57;1.63;;;23.40;62.80;;;;;;5100995;28;20209;-89
2023/07/26 11:19:52;;;;;;;2.33;1.70;;;23.50;62.90;;;;;;5107362;28;20438;-90
2023/07/26 11:22:18;;;;;;;2.80;1.63;;;23.50;62.80;;;;;;5111275;28;20188;-90
2023/07/26 11:24:47;;;;;;;4.43;1.70;;;23.50;63.00;;;;;;5095997;28;20181;-90
2023/07/26 11:27:14;;;;;;;3.53;1.70;;;23.40;63.20;;;;;;5094743;28;20675;-89
2023/07/26 11:29:42;;;;;;;5.43;1.53;;;23.50;63.00;;;;;;5096465;28;20768;-89
2023/07/26 11:32:10;;;;;;;1.93;1.60;;;23.50;63.20;;;;;;5093730;28;20397;-89
2023/07/26 11:34:37;;;;;;;1.77;1.60;;;23.50;63.10;;;;;;5097461;28;20178;-89
2023/07/26 11:37:14;;;;;;;2.10;1.83;;;23.50;62.80;;;;;;5113034;28;20224;-88
2023/07/26 11:39:43;;;;;;;2.33;1.67;;;23.50;63.40;;;;;;5099034;28;20185;-88
2023/07/26 11:42:09;;;;;;;2.63;1.70;;;23.50;63.00;;;;;;5099230;28;20173;-88
2023/07/26 11:44:36;;;;;;;2.73;1.70;;;23.60;63.10;;;;;;5094851;28;20182;-89
2023/07/26 11:47:08;;;;;;;2.83;2.03;;;23.60;63.00;;;;;;5096998;28;20185;-88
2023/07/26 11:49:37;;;;;;;1.83;1.50;;;23.60;63.00;;;;;;5117975;28;20205;-88
2023/07/26 11:52:11;;;;;;;3.93;2.47;;;23.70;63.00;;;;;;5098098;28;20415;-89
2023/07/26 11:54:56;;;;;;;3.57;2.50;;;23.60;63.50;;;;;;5098422;28;20510;-89
2023/07/26 11:57:28;;;;;;;2.03;1.83;;;23.60;64.10;;;;;;5115645;28;20650;-89
2023/07/26 12:00:00;;;;;;;2.53;2.00;;;23.50;63.80;;;;;;5098051;28;20323;-88
2023/07/26 12:02:26;;;;;;;4.47;2.00;;;23.50;64.20;;;;;;5096205;28;20246;-89
2023/07/26 12:05:29;;;;;;;2.43;1.73;;;23.60;63.80;;;;;;5093288;28;20193;-88
2023/07/26 12:07:58;;;;;;;2.83;1.83;;;23.70;63.70;;;;;;5101640;28;20259;-88
2023/07/26 12:10:39;;;;;;;2.10;1.67;;;23.70;63.40;;;;;;5116906;28;20170;-88
2023/07/26 12:13:09;;;;;;;3.20;2.03;;;23.70;63.10;;;;;;5102945;27;20210;-88
2023/07/26 12:15:53;;;;;;;2.37;1.90;;;23.70;63.00;;;;;;5096738;27;20215;-88
2023/07/26 12:18:20;;;;;;;2.03;1.73;;;23.70;63.10;;;;;;5104248;27;20191;-88
2023/07/26 12:21:07;;;;;;;3.13;2.23;;;23.70;62.90;;;;;;5100279;27;20185;-88
2023/07/26 12:23:57;;;;;;;3.70;2.43;;;23.70;63.40;;;;;;5097491;27;20273;-88
2023/07/26 12:26:31;;;;;;;3.33;2.10;;;23.70;63.00;;;;;;5115720;27;20293;-88
2023/07/26 12:28:58;;;;;;;3.63;2.50;;;23.80;62.90;;;;;;5105978;27;20612;-88
2023/07/26 12:31:26;;;;;;;2.77;2.40;;;23.80;63.20;;;;;;5098781;27;20182;-88
2023/07/26 12:34:06;;;;;;;2.67;2.00;;;23.80;63.10;;;;;;5103062;27;20181;-88
2023/07/26 12:36:40;;;;;;;3.77;2.20;;;23.80;62.60;;;;;;5106126;27;20178;-88
2023/07/26 12:39:11;;;;;;;2.47;2.00;;;23.80;62.70;;;;;;5099143;27;20435;-88
2023/07/26 12:41:38;;;;;;;2.87;2.10;;;23.80;63.00;;;;;;5100206;27;20180;-89
2023/07/26 12:44:11;;;;;;;2.30;2.03;;;23.70;63.00;;;;;;5098750;27;20421;-89
2023/07/26 12:46:41;;;;;;;2.10;1.83;;;23.70;63.20;;;;;;5097727;27;20182;-89
2023/07/26 12:49:08;;;;;;;3.53;2.30;;;23.70;63.00;;;;;;5103583;27;20364;-89
2023/07/26 12:51:34;;;;;;;2.63;2.40;;;23.70;62.90;;;;;;5097366;28;20650;-88
2023/07/26 12:54:02;;;;;;;3.00;2.40;;;23.80;62.80;;;;;;5099530;28;20532;-88
2023/07/26 12:56:28;;;;;;;3.77;2.37;;;23.70;62.70;;;;;;5102402;28;20659;-89
2023/07/26 12:58:57;;;;;;;3.33;2.40;;;23.70;63.10;;;;;;5099649;27;20196;-88
2023/07/26 13:04:11;;;;;;;4.93;2.57;;;23.60;64.20;;;;;;5116381;27;20175;-87